PWSweather.com
Personal Weather Stations
Station Observations
DW1039
Liberty & Fairfield Townships, Hamilton, OH 45011

Liberty & Fairfield TownshipsHamilton, OH 45011

Lat: 39.3933, Lon: -84.477

Elevation: 780

Station Type: Davis Vantage Pro2 (Daytime Fan Aspirated)

http://www.lfweathercenter.com/

High Low Average
Temperature 22.8°F-5.1°C 5.4°F-14.8°C 14.0°F-10.0°C
Dew Point 7.2°F-13.8°C 0.0°F-17.8°C 4.7°F-15.2°C
Winds 10.0 mph 16.1 kmh Calm Calm 1.0 mph SW1.6 kmh SW
Wind Gusts 12.0 mph19.3 kmh -- 3.0 mph4.8 kmh
Humidity 83% 48% 67%
Pressure 30.76 in1041.7 mb 30.43 in1030.5 mb -
Precipitation 0.00 in0.0 mm - -
Hour Temp Dew Point Humidity Winds Wind Gusts Pressure Precip Precip Rate Daily Precip Total
12:00 AM 9.2°F-12.7°C 4.0°F-15.6°C 79% Calm Calm 1.0 mph1.6 kmh 30.43 in1030.5 mb 0.00 in0.0 mm 0.00 in/hr0.0 mm/hr 0.00 in0.0 mm
12:10 AM 9.0°F-12.8°C 4.1°F-15.5°C 80% Calm Calm -- 30.44 in1030.8 mb 0.00 in0.0 mm 0.00 in/hr0.0 mm/hr 0.00 in0.0 mm
12:20 AM 8.9°F-12.8°C 4.0°F-15.6°C 80% Calm Calm 2.0 mph3.2 kmh 30.44 in1030.8 mb 0.00 in0.0 mm 0.00 in/hr0.0 mm/hr 0.00 in0.0 mm
12:30 AM 9.4°F-12.6°C 4.8°F-15.1°C 81% Calm Calm -- 30.45 in1031.2 mb 0.00 in0.0 mm 0.00 in/hr0.0 mm/hr 0.00 in0.0 mm
12:40 AM 9.6°F-12.4°C 5.0°F-15.0°C 81% Calm Calm -- 30.45 in1031.2 mb 0.00 in0.0 mm 0.00 in/hr0.0 mm/hr 0.00 in0.0 mm
12:50 AM 9.7°F-12.4°C 5.1°F-14.9°C 81% Calm Calm 1.0 mph1.6 kmh 30.45 in1031.2 mb 0.00 in0.0 mm 0.00 in/hr0.0 mm/hr 0.00 in0.0 mm
01:00 AM 10.1°F-12.2°C 5.4°F-14.8°C 81% Calm Calm 1.0 mph1.6 kmh 30.45 in1031.2 mb 0.00 in0.0 mm 0.00 in/hr0.0 mm/hr 0.00 in0.0 mm
01:10 AM 10.5°F-11.9°C 5.8°F-14.6°C 81% Calm Calm 1.0 mph1.6 kmh 30.45 in1031.2 mb 0.00 in0.0 mm 0.00 in/hr0.0 mm/hr 0.00 in0.0 mm
01:20 AM 10.7°F-11.8°C 6.0°F-14.4°C 81% Calm Calm 2.0 mph3.2 kmh 30.45 in1031.2 mb 0.00 in0.0 mm 0.00 in/hr0.0 mm/hr 0.00 in0.0 mm
01:30 AM 10.8°F-11.8°C 6.1°F-14.4°C 81% Calm Calm -- 30.46 in1031.5 mb 0.00 in0.0 mm 0.00 in/hr0.0 mm/hr 0.00 in0.0 mm
01:40 AM 10.7°F-11.8°C 6.0°F-14.4°C 81% Calm Calm -- 30.46 in1031.5 mb 0.00 in0.0 mm 0.00 in/hr0.0 mm/hr 0.00 in0.0 mm
01:50 AM 10.8°F-11.8°C 6.1°F-14.4°C 81% Calm Calm 1.0 mph1.6 kmh 30.46 in1031.5 mb 0.00 in0.0 mm 0.00 in/hr0.0 mm/hr 0.00 in0.0 mm
02:00 AM 10.8°F-11.8°C 6.1°F-14.4°C 81% Calm Calm 1.0 mph1.6 kmh 30.46 in1031.5 mb 0.00 in0.0 mm 0.00 in/hr0.0 mm/hr 0.00 in0.0 mm
02:10 AM 10.8°F-11.8°C 6.1°F-14.4°C 81% Calm Calm -- 30.46 in1031.5 mb 0.00 in0.0 mm 0.00 in/hr0.0 mm/hr 0.00 in0.0 mm
02:20 AM 10.5°F-11.9°C 5.8°F-14.6°C 81% Calm Calm -- 30.46 in1031.5 mb 0.00 in0.0 mm 0.00 in/hr0.0 mm/hr 0.00 in0.0 mm
02:30 AM 10.3°F-12.1°C 5.6°F-14.7°C 81% Calm Calm -- 30.46 in1031.5 mb 0.00 in0.0 mm 0.00 in/hr0.0 mm/hr 0.00 in0.0 mm
02:40 AM 10.2°F-12.1°C 5.5°F-14.7°C 81% Calm Calm -- 30.47 in1031.8 mb 0.00 in0.0 mm 0.00 in/hr0.0 mm/hr 0.00 in0.0 mm
02:50 AM 10.0°F-12.2°C 5.6°F-14.7°C 82% Calm Calm -- 30.47 in1031.8 mb 0.00 in0.0 mm 0.00 in/hr0.0 mm/hr 0.00 in0.0 mm
03:00 AM 10.1°F-12.2°C 5.7°F-14.6°C 82% Calm Calm -- 30.48 in1032.2 mb 0.00 in0.0 mm 0.00 in/hr0.0 mm/hr 0.00 in0.0 mm
03:10 AM 10.3°F-12.1°C 5.9°F-14.5°C 82% Calm Calm -- 30.48 in1032.2 mb 0.00 in0.0 mm 0.00 in/hr0.0 mm/hr 0.00 in0.0 mm
03:20 AM 10.3°F-12.1°C 5.9°F-14.5°C 82% Calm Calm -- 30.48 in1032.2 mb 0.00 in0.0 mm 0.00 in/hr0.0 mm/hr 0.00 in0.0 mm
03:30 AM 10.5°F-11.9°C 6.1°F-14.4°C 82% Calm Calm -- 30.49 in1032.5 mb 0.00 in0.0 mm 0.00 in/hr0.0 mm/hr 0.00 in0.0 mm
03:40 AM 10.8°F-11.8°C 6.7°F-14.1°C 83% Calm Calm 1.0 mph1.6 kmh 30.50 in1032.8 mb 0.00 in0.0 mm 0.00 in/hr0.0 mm/hr 0.00 in0.0 mm
03:50 AM 11.2°F-11.6°C 7.1°F-13.8°C 83% Calm Calm 3.0 mph4.8 kmh 30.50 in1032.8 mb 0.00 in0.0 mm 0.00 in/hr0.0 mm/hr 0.00 in0.0 mm
04:00 AM 11.3°F-11.5°C 7.2°F-13.8°C 83% Calm Calm 1.0 mph1.6 kmh 30.50 in1032.8 mb 0.00 in0.0 mm 0.00 in/hr0.0 mm/hr 0.00 in0.0 mm
04:10 AM 11.2°F-11.6°C 7.1°F-13.8°C 83% Calm Calm 1.0 mph1.6 kmh 30.50 in1032.8 mb 0.00 in0.0 mm 0.00 in/hr0.0 mm/hr 0.00 in0.0 mm
04:20 AM 11.2°F-11.6°C 7.1°F-13.8°C 83% Calm Calm 5.0 mph8.0 kmh 30.50 in1032.8 mb 0.00 in0.0 mm 0.00 in/hr0.0 mm/hr 0.00 in0.0 mm
04:30 AM 11.2°F-11.6°C 7.1°F-13.8°C 83% 2.0 mph W3.2 kmh W 2.0 mph3.2 kmh 30.51 in1033.2 mb 0.00 in0.0 mm 0.00 in/hr0.0 mm/hr 0.00 in0.0 mm
04:40 AM 10.9°F-11.7°C 6.8°F-14.0°C 83% 2.0 mph NW3.2 kmh NW 5.0 mph8.0 kmh 30.51 in1033.2 mb 0.00 in0.0 mm 0.00 in/hr0.0 mm/hr 0.00 in0.0 mm
04:50 AM 10.7°F-11.8°C 6.6°F-14.1°C 83% Calm Calm 3.0 mph4.8 kmh 30.52 in1033.5 mb 0.00 in0.0 mm 0.00 in/hr0.0 mm/hr 0.00 in0.0 mm
05:00 AM 10.5°F-11.9°C 6.4°F-14.2°C 83% Calm Calm 2.0 mph3.2 kmh 30.53 in1033.9 mb 0.00 in0.0 mm 0.00 in/hr0.0 mm/hr 0.00 in0.0 mm
05:10 AM 10.3°F-12.1°C 6.2°F-14.3°C 83% Calm Calm -- 30.53 in1033.9 mb 0.00 in0.0 mm 0.00 in/hr0.0 mm/hr 0.00 in0.0 mm
05:20 AM 10.1°F-12.2°C 6.0°F-14.4°C 83% Calm Calm -- 30.54 in1034.2 mb 0.00 in0.0 mm 0.00 in/hr0.0 mm/hr 0.00 in0.0 mm
05:30 AM 9.8°F-12.3°C 5.7°F-14.6°C 83% Calm Calm -- 30.54 in1034.2 mb 0.00 in0.0 mm 0.00 in/hr0.0 mm/hr 0.00 in0.0 mm
05:40 AM 9.5°F-12.5°C 5.4°F-14.8°C 83% Calm Calm 2.0 mph3.2 kmh 30.54 in1034.2 mb 0.00 in0.0 mm 0.00 in/hr0.0 mm/hr 0.00 in0.0 mm
05:50 AM 9.5°F-12.5°C 5.4°F-14.8°C 83% Calm Calm 3.0 mph4.8 kmh 30.55 in1034.5 mb 0.00 in0.0 mm 0.00 in/hr0.0 mm/hr 0.00 in0.0 mm
06:00 AM 9.7°F-12.4°C 5.6°F-14.7°C 83% Calm Calm 2.0 mph3.2 kmh 30.56 in1034.9 mb 0.00 in0.0 mm 0.00 in/hr0.0 mm/hr 0.00 in0.0 mm
06:10 AM 9.6°F-12.4°C 5.2°F-14.9°C 82% Calm Calm 4.0 mph6.4 kmh 30.55 in1034.5 mb 0.00 in0.0 mm 0.00 in/hr0.0 mm/hr 0.00 in0.0 mm
06:20 AM 9.4°F-12.6°C 5.0°F-15.0°C 82% Calm Calm 3.0 mph4.8 kmh 30.55 in1034.5 mb 0.00 in0.0 mm 0.00 in/hr0.0 mm/hr 0.00 in0.0 mm
06:30 AM 8.9°F-12.8°C 4.0°F-15.6°C 80% 1.0 mph WNW1.6 kmh WNW 4.0 mph6.4 kmh 30.56 in1034.9 mb 0.00 in0.0 mm 0.00 in/hr0.0 mm/hr 0.00 in0.0 mm
06:40 AM 8.1°F-13.3°C 3.0°F-16.1°C 79% 4.0 mph NNW6.4 kmh NNW 9.0 mph14.5 kmh 30.56 in1034.9 mb 0.00 in0.0 mm 0.00 in/hr0.0 mm/hr 0.00 in0.0 mm
06:50 AM 7.6°F-13.6°C 2.2°F-16.6°C 78% 1.0 mph NW1.6 kmh NW 4.0 mph6.4 kmh 30.57 in1035.2 mb 0.00 in0.0 mm 0.00 in/hr0.0 mm/hr 0.00 in0.0 mm
07:00 AM 7.2°F-13.8°C 1.8°F-16.8°C 78% Calm Calm 3.0 mph4.8 kmh 30.58 in1035.6 mb 0.00 in0.0 mm 0.00 in/hr0.0 mm/hr 0.00 in0.0 mm
07:10 AM 6.8°F-14.0°C 1.4°F-17.0°C 78% Calm Calm 3.0 mph4.8 kmh 30.59 in1035.9 mb 0.00 in0.0 mm 0.00 in/hr0.0 mm/hr 0.00 in0.0 mm
07:20 AM 6.4°F-14.2°C 1.0°F-17.2°C 78% Calm Calm -- 30.59 in1035.9 mb 0.00 in0.0 mm 0.00 in/hr0.0 mm/hr 0.00 in0.0 mm
07:30 AM 5.6°F-14.7°C 0.2°F-17.7°C 78% Calm Calm -- 30.59 in1035.9 mb 0.00 in0.0 mm 0.00 in/hr0.0 mm/hr 0.00 in0.0 mm
07:40 AM 5.4°F-14.8°C 0.0°F-17.8°C 78% Calm Calm -- 30.59 in1035.9 mb 0.00 in0.0 mm 0.00 in/hr0.0 mm/hr 0.00 in0.0 mm
07:50 AM 5.5°F-14.7°C 0.4°F-17.6°C 79% Calm Calm -- 30.60 in1036.2 mb 0.00 in0.0 mm 0.00 in/hr0.0 mm/hr 0.00 in0.0 mm
08:00 AM 5.8°F-14.6°C 0.7°F-17.4°C 79% Calm Calm 1.0 mph1.6 kmh 30.60 in1036.2 mb 0.00 in0.0 mm 0.00 in/hr0.0 mm/hr 0.00 in0.0 mm
08:10 AM 6.2°F-14.3°C 1.1°F-17.2°C 79% 1.0 mph NW1.6 kmh NW 3.0 mph4.8 kmh 30.61 in1036.6 mb 0.00 in0.0 mm 0.00 in/hr0.0 mm/hr 0.00 in0.0 mm
08:20 AM 6.7°F-14.1°C 1.6°F-16.9°C 79% 3.0 mph NW4.8 kmh NW 3.0 mph4.8 kmh 30.61 in1036.6 mb 0.00 in0.0 mm 0.00 in/hr0.0 mm/hr 0.00 in0.0 mm
08:30 AM 7.2°F-13.8°C 1.8°F-16.8°C 78% 3.0 mph W4.8 kmh W 4.0 mph6.4 kmh 30.63 in1037.3 mb 0.00 in0.0 mm 0.00 in/hr0.0 mm/hr 0.00 in0.0 mm
08:40 AM 7.6°F-13.6°C 1.9°F-16.7°C 77% Calm Calm 3.0 mph4.8 kmh 30.63 in1037.3 mb 0.00 in0.0 mm 0.00 in/hr0.0 mm/hr 0.00 in0.0 mm
08:50 AM 8.0°F-13.3°C 2.0°F-16.7°C 76% Calm Calm -- 30.64 in1037.6 mb 0.00 in0.0 mm 0.00 in/hr0.0 mm/hr 0.00 in0.0 mm
09:00 AM 8.8°F-12.9°C 2.5°F-16.4°C 75% 3.0 mph W4.8 kmh W 4.0 mph6.4 kmh 30.64 in1037.6 mb 0.00 in0.0 mm 0.00 in/hr0.0 mm/hr 0.00 in0.0 mm
09:10 AM 9.9°F-12.3°C 3.3°F-15.9°C 74% Calm Calm 3.0 mph4.8 kmh 30.65 in1037.9 mb 0.00 in0.0 mm 0.00 in/hr0.0 mm/hr 0.00 in0.0 mm
09:20 AM 10.4°F-12.0°C 3.2°F-16.0°C 72% Calm Calm 2.0 mph3.2 kmh 30.66 in1038.3 mb 0.00 in0.0 mm 0.00 in/hr0.0 mm/hr 0.00 in0.0 mm
09:30 AM 10.6°F-11.9°C 3.4°F-15.9°C 72% Calm Calm 3.0 mph4.8 kmh 30.66 in1038.3 mb 0.00 in0.0 mm 0.00 in/hr0.0 mm/hr 0.00 in0.0 mm
09:40 AM 10.9°F-11.7°C 3.4°F-15.9°C 71% Calm Calm 3.0 mph4.8 kmh 30.66 in1038.3 mb 0.00 in0.0 mm 0.00 in/hr0.0 mm/hr 0.00 in0.0 mm
09:50 AM 11.9°F-11.2°C 4.3°F-15.4°C 71% 1.0 mph W1.6 kmh W 5.0 mph8.0 kmh 30.66 in1038.3 mb 0.00 in0.0 mm 0.00 in/hr0.0 mm/hr 0.00 in0.0 mm
10:00 AM 12.3°F-10.9°C 5.0°F-15.0°C 72% 1.0 mph NW1.6 kmh NW 4.0 mph6.4 kmh 30.66 in1038.3 mb 0.00 in0.0 mm 0.00 in/hr0.0 mm/hr 0.00 in0.0 mm
10:10 AM 12.9°F-10.6°C 5.6°F-14.7°C 72% 3.0 mph NW4.8 kmh NW 6.0 mph9.7 kmh 30.66 in1038.3 mb 0.00 in0.0 mm 0.00 in/hr0.0 mm/hr 0.00 in0.0 mm
10:20 AM 13.3°F-10.4°C 5.7°F-14.6°C 71% 6.0 mph NNW9.7 kmh NNW 6.0 mph9.7 kmh 30.66 in1038.3 mb 0.00 in0.0 mm 0.00 in/hr0.0 mm/hr 0.00 in0.0 mm
10:30 AM 13.4°F-10.3°C 5.5°F-14.7°C 70% 4.0 mph NNW6.4 kmh NNW 7.0 mph11.3 kmh 30.67 in1038.6 mb 0.00 in0.0 mm 0.00 in/hr0.0 mm/hr 0.00 in0.0 mm
10:40 AM 13.7°F-10.2°C 5.1°F-14.9°C 68% 3.0 mph NNW4.8 kmh NNW 6.0 mph9.7 kmh 30.67 in1038.6 mb 0.00 in0.0 mm 0.00 in/hr0.0 mm/hr 0.00 in0.0 mm
10:50 AM 14.1°F-9.9°C 4.5°F-15.3°C 65% 4.0 mph N6.4 kmh N 7.0 mph11.3 kmh 30.67 in1038.6 mb 0.00 in0.0 mm 0.00 in/hr0.0 mm/hr 0.00 in0.0 mm
11:00 AM 14.9°F-9.5°C 4.9°F-15.1°C 64% 3.0 mph NW4.8 kmh NW 5.0 mph8.0 kmh 30.68 in1038.9 mb 0.00 in0.0 mm 0.00 in/hr0.0 mm/hr 0.00 in0.0 mm
11:10 AM 15.2°F-9.3°C 4.2°F-15.4°C 61% 1.0 mph NNW1.6 kmh NNW 7.0 mph11.3 kmh 30.68 in1038.9 mb 0.00 in0.0 mm 0.00 in/hr0.0 mm/hr 0.00 in0.0 mm
11:20 AM 15.8°F-9.0°C 4.8°F-15.1°C 61% Calm Calm 4.0 mph6.4 kmh 30.68 in1038.9 mb 0.00 in0.0 mm 0.00 in/hr0.0 mm/hr 0.00 in0.0 mm
11:30 AM 16.4°F-8.7°C 5.0°F-15.0°C 60% 3.0 mph WNW4.8 kmh WNW 6.0 mph9.7 kmh 30.69 in1039.3 mb 0.00 in0.0 mm 0.00 in/hr0.0 mm/hr 0.00 in0.0 mm
11:40 AM 17.2°F-8.2°C 5.4°F-14.8°C 59% 4.0 mph WNW6.4 kmh WNW 6.0 mph9.7 kmh 30.69 in1039.3 mb 0.00 in0.0 mm 0.00 in/hr0.0 mm/hr 0.00 in0.0 mm
11:50 AM 17.5°F-8.1°C 5.3°F-14.8°C 58% 2.0 mph WNW3.2 kmh WNW 5.0 mph8.0 kmh 30.70 in1039.6 mb 0.00 in0.0 mm 0.00 in/hr0.0 mm/hr 0.00 in0.0 mm
12:00 PM 18.2°F-7.7°C 5.9°F-14.5°C 58% 1.0 mph WNW1.6 kmh WNW 5.0 mph8.0 kmh 30.70 in1039.6 mb 0.00 in0.0 mm 0.00 in/hr0.0 mm/hr 0.00 in0.0 mm
12:10 PM 19.6°F-6.9°C 7.2°F-13.8°C 58% 6.0 mph W9.7 kmh W 7.0 mph11.3 kmh 30.70 in1039.6 mb 0.00 in0.0 mm 0.00 in/hr0.0 mm/hr 0.00 in0.0 mm
12:20 PM 19.5°F-6.9°C 6.4°F-14.2°C 56% 3.0 mph NW4.8 kmh NW 7.0 mph11.3 kmh 30.70 in1039.6 mb 0.00 in0.0 mm 0.00 in/hr0.0 mm/hr 0.00 in0.0 mm
12:30 PM 19.8°F-6.8°C 6.3°F-14.3°C 55% 4.0 mph NNW6.4 kmh NNW 9.0 mph14.5 kmh 30.70 in1039.6 mb 0.00 in0.0 mm 0.00 in/hr0.0 mm/hr 0.00 in0.0 mm
12:40 PM 20.4°F-6.4°C 7.2°F-13.8°C 56% 3.0 mph NW4.8 kmh NW 7.0 mph11.3 kmh 30.69 in1039.3 mb 0.00 in0.0 mm 0.00 in/hr0.0 mm/hr 0.00 in0.0 mm
12:50 PM 20.4°F-6.4°C 6.0°F-14.4°C 53% 4.0 mph NW6.4 kmh NW 11.0 mph17.7 kmh 30.69 in1039.3 mb 0.00 in0.0 mm 0.00 in/hr0.0 mm/hr 0.00 in0.0 mm
01:00 PM 20.7°F-6.3°C 6.3°F-14.3°C 53% Calm Calm 6.0 mph9.7 kmh 30.69 in1039.3 mb 0.00 in0.0 mm 0.00 in/hr0.0 mm/hr 0.00 in0.0 mm
01:10 PM 21.6°F-5.8°C 6.7°F-14.1°C 52% 4.0 mph NW6.4 kmh NW 7.0 mph11.3 kmh 30.69 in1039.3 mb 0.00 in0.0 mm 0.00 in/hr0.0 mm/hr 0.00 in0.0 mm
01:20 PM 21.2°F-6.0°C 6.3°F-14.3°C 52% 5.0 mph NNW8.0 kmh NNW 12.0 mph19.3 kmh 30.68 in1038.9 mb 0.00 in0.0 mm 0.00 in/hr0.0 mm/hr 0.00 in0.0 mm
01:30 PM 20.9°F-6.2°C 5.2°F-14.9°C 50% 3.0 mph NW4.8 kmh NW 7.0 mph11.3 kmh 30.69 in1039.3 mb 0.00 in0.0 mm 0.00 in/hr0.0 mm/hr 0.00 in0.0 mm
01:40 PM 21.7°F-5.7°C 6.8°F-14.0°C 52% 3.0 mph NW4.8 kmh NW 9.0 mph14.5 kmh 30.69 in1039.3 mb 0.00 in0.0 mm 0.00 in/hr0.0 mm/hr 0.00 in0.0 mm
01:50 PM 22.1°F-5.5°C 6.3°F-14.3°C 50% 4.0 mph SW6.4 kmh SW 5.0 mph8.0 kmh 30.68 in1038.9 mb 0.00 in0.0 mm 0.00 in/hr0.0 mm/hr 0.00 in0.0 mm
02:00 PM 22.8°F-5.1°C 7.0°F-13.9°C 50% 9.0 mph NW14.5 kmh NW 11.0 mph17.7 kmh 30.68 in1038.9 mb 0.00 in0.0 mm 0.00 in/hr0.0 mm/hr 0.00 in0.0 mm
02:10 PM 21.5°F-5.8°C 5.8°F-14.6°C 50% 5.0 mph NW8.0 kmh NW 10.0 mph16.1 kmh 30.68 in1038.9 mb 0.00 in0.0 mm 0.00 in/hr0.0 mm/hr 0.00 in0.0 mm
02:20 PM 21.8°F-5.7°C 5.6°F-14.7°C 49% 4.0 mph WNW6.4 kmh WNW 7.0 mph11.3 kmh 30.68 in1038.9 mb 0.00 in0.0 mm 0.00 in/hr0.0 mm/hr 0.00 in0.0 mm
02:30 PM 22.3°F-5.4°C 6.1°F-14.4°C 49% 3.0 mph NW4.8 kmh NW 8.0 mph12.9 kmh 30.68 in1038.9 mb 0.00 in0.0 mm 0.00 in/hr0.0 mm/hr 0.00 in0.0 mm
02:40 PM 22.6°F-5.2°C 6.3°F-14.3°C 49% 5.0 mph NW8.0 kmh NW 10.0 mph16.1 kmh 30.68 in1038.9 mb 0.00 in0.0 mm 0.00 in/hr0.0 mm/hr 0.00 in0.0 mm
02:50 PM 21.6°F-5.8°C 5.9°F-14.5°C 50% 4.0 mph N6.4 kmh N 6.0 mph9.7 kmh 30.68 in1038.9 mb 0.00 in0.0 mm 0.00 in/hr0.0 mm/hr 0.00 in0.0 mm
03:00 PM 21.6°F-5.8°C 6.3°F-14.3°C 51% Calm Calm 10.0 mph16.1 kmh 30.68 in1038.9 mb 0.00 in0.0 mm 0.00 in/hr0.0 mm/hr 0.00 in0.0 mm
03:10 PM 21.7°F-5.7°C 6.4°F-14.2°C 51% 10.0 mph NW16.1 kmh NW 11.0 mph17.7 kmh 30.68 in1038.9 mb 0.00 in0.0 mm 0.00 in/hr0.0 mm/hr 0.00 in0.0 mm
03:20 PM 21.1°F-6.1°C 5.8°F-14.6°C 51% 1.0 mph N1.6 kmh N 11.0 mph17.7 kmh 30.68 in1038.9 mb 0.00 in0.0 mm 0.00 in/hr0.0 mm/hr 0.00 in0.0 mm
03:30 PM 21.3°F-5.9°C 6.0°F-14.4°C 51% 2.0 mph NNE3.2 kmh NNE 9.0 mph14.5 kmh 30.68 in1038.9 mb 0.00 in0.0 mm 0.00 in/hr0.0 mm/hr 0.00 in0.0 mm
03:40 PM 21.5°F-5.8°C 6.2°F-14.3°C 51% 5.0 mph NNW8.0 kmh NNW 10.0 mph16.1 kmh 30.68 in1038.9 mb 0.00 in0.0 mm 0.00 in/hr0.0 mm/hr 0.00 in0.0 mm
03:50 PM 22.7°F-5.2°C 6.4°F-14.2°C 49% 1.0 mph NW1.6 kmh NW 7.0 mph11.3 kmh 30.69 in1039.3 mb 0.00 in0.0 mm 0.00 in/hr0.0 mm/hr 0.00 in0.0 mm
04:00 PM 21.9°F-5.6°C 5.2°F-14.9°C 48% 3.0 mph NNW4.8 kmh NNW 8.0 mph12.9 kmh 30.69 in1039.3 mb 0.00 in0.0 mm 0.00 in/hr0.0 mm/hr 0.00 in0.0 mm
04:10 PM 21.0°F-6.1°C 5.7°F-14.6°C 51% 3.0 mph NW4.8 kmh NW 6.0 mph9.7 kmh 30.69 in1039.3 mb 0.00 in0.0 mm 0.00 in/hr0.0 mm/hr 0.00 in0.0 mm
04:20 PM 20.9°F-6.2°C 5.2°F-14.9°C 50% Calm Calm 4.0 mph6.4 kmh 30.69 in1039.3 mb 0.00 in0.0 mm 0.00 in/hr0.0 mm/hr 0.00 in0.0 mm
04:30 PM 20.5°F-6.4°C 5.3°F-14.8°C 51% Calm Calm 4.0 mph6.4 kmh 30.69 in1039.3 mb 0.00 in0.0 mm 0.00 in/hr0.0 mm/hr 0.00 in0.0 mm
04:40 PM 21.5°F-5.8°C 6.2°F-14.3°C 51% 1.0 mph NW1.6 kmh NW 6.0 mph9.7 kmh 30.69 in1039.3 mb 0.00 in0.0 mm 0.00 in/hr0.0 mm/hr 0.00 in0.0 mm
04:50 PM 21.4°F-5.9°C 5.2°F-14.9°C 49% 6.0 mph N9.7 kmh N 7.0 mph11.3 kmh 30.69 in1039.3 mb 0.00 in0.0 mm 0.00 in/hr0.0 mm/hr 0.00 in0.0 mm
05:00 PM 20.8°F-6.2°C 4.2°F-15.4°C 48% 3.0 mph NNW4.8 kmh NNW 6.0 mph9.7 kmh 30.69 in1039.3 mb 0.00 in0.0 mm 0.00 in/hr0.0 mm/hr 0.00 in0.0 mm
05:10 PM 20.6°F-6.3°C 4.0°F-15.6°C 48% Calm Calm 5.0 mph8.0 kmh 30.68 in1038.9 mb 0.00 in0.0 mm 0.00 in/hr0.0 mm/hr 0.00 in0.0 mm
05:20 PM 20.3°F-6.5°C 4.2°F-15.4°C 49% 3.0 mph N4.8 kmh N 4.0 mph6.4 kmh 30.69 in1039.3 mb 0.00 in0.0 mm 0.00 in/hr0.0 mm/hr 0.00 in0.0 mm
05:30 PM 19.9°F-6.7°C 3.8°F-15.7°C 49% 3.0 mph N4.8 kmh N 5.0 mph8.0 kmh 30.70 in1039.6 mb 0.00 in0.0 mm 0.00 in/hr0.0 mm/hr 0.00 in0.0 mm
05:40 PM 19.5°F-6.9°C 3.9°F-15.6°C 50% 1.0 mph N1.6 kmh N 6.0 mph9.7 kmh 30.70 in1039.6 mb 0.00 in0.0 mm 0.00 in/hr0.0 mm/hr 0.00 in0.0 mm
05:50 PM 19.3°F-7.1°C 3.7°F-15.7°C 50% 3.0 mph N4.8 kmh N 4.0 mph6.4 kmh 30.69 in1039.3 mb 0.00 in0.0 mm 0.00 in/hr0.0 mm/hr 0.00 in0.0 mm
06:00 PM 19.0°F-7.2°C 3.9°F-15.6°C 51% Calm Calm 3.0 mph4.8 kmh 30.70 in1039.6 mb 0.00 in0.0 mm 0.00 in/hr0.0 mm/hr 0.00 in0.0 mm
06:10 PM 18.5°F-7.5°C 3.4°F-15.9°C 51% 3.0 mph N4.8 kmh N 4.0 mph6.4 kmh 30.70 in1039.6 mb 0.00 in0.0 mm 0.00 in/hr0.0 mm/hr 0.00 in0.0 mm
06:20 PM 18.2°F-7.7°C 3.1°F-16.1°C 51% 1.0 mph N1.6 kmh N 1.0 mph1.6 kmh 30.70 in1039.6 mb 0.00 in0.0 mm 0.00 in/hr0.0 mm/hr 0.00 in0.0 mm
06:30 PM 17.7°F-7.9°C 3.5°F-15.8°C 53% Calm Calm 2.0 mph3.2 kmh 30.69 in1039.3 mb 0.00 in0.0 mm 0.00 in/hr0.0 mm/hr 0.00 in0.0 mm
06:40 PM 17.1°F-8.3°C 3.7°F-15.7°C 55% Calm Calm 3.0 mph4.8 kmh 30.70 in1039.6 mb 0.00 in0.0 mm 0.00 in/hr0.0 mm/hr 0.00 in0.0 mm
06:50 PM 16.6°F-8.6°C 3.7°F-15.7°C 56% Calm Calm -- 30.70 in1039.6 mb 0.00 in0.0 mm 0.00 in/hr0.0 mm/hr 0.00 in0.0 mm
07:00 PM 16.3°F-8.7°C 3.8°F-15.7°C 57% Calm Calm 1.0 mph1.6 kmh 30.70 in1039.6 mb 0.00 in0.0 mm 0.00 in/hr0.0 mm/hr 0.00 in0.0 mm
07:10 PM 15.9°F-8.9°C 3.8°F-15.7°C 58% Calm Calm -- 30.71 in1040.0 mb 0.00 in0.0 mm 0.00 in/hr0.0 mm/hr 0.00 in0.0 mm
07:20 PM 15.5°F-9.2°C 4.1°F-15.5°C 60% Calm Calm 1.0 mph1.6 kmh 30.72 in1040.3 mb 0.00 in0.0 mm 0.00 in/hr0.0 mm/hr 0.00 in0.0 mm
07:30 PM 15.3°F-9.3°C 3.9°F-15.6°C 60% Calm Calm 1.0 mph1.6 kmh 30.73 in1040.6 mb 0.00 in0.0 mm 0.00 in/hr0.0 mm/hr 0.00 in0.0 mm
07:40 PM 14.8°F-9.6°C 3.8°F-15.7°C 61% Calm Calm 1.0 mph1.6 kmh 30.73 in1040.6 mb 0.00 in0.0 mm 0.00 in/hr0.0 mm/hr 0.00 in0.0 mm
07:50 PM 14.5°F-9.7°C 3.9°F-15.6°C 62% 3.0 mph N4.8 kmh N 4.0 mph6.4 kmh 30.72 in1040.3 mb 0.00 in0.0 mm 0.00 in/hr0.0 mm/hr 0.00 in0.0 mm
08:00 PM 13.9°F-10.1°C 3.6°F-15.8°C 63% 2.0 mph N3.2 kmh N 3.0 mph4.8 kmh 30.72 in1040.3 mb 0.00 in0.0 mm 0.00 in/hr0.0 mm/hr 0.00 in0.0 mm
08:10 PM 14.0°F-10.0°C 4.1°F-15.5°C 64% 3.0 mph N4.8 kmh N 4.0 mph6.4 kmh 30.73 in1040.6 mb 0.00 in0.0 mm 0.00 in/hr0.0 mm/hr 0.00 in0.0 mm
08:20 PM 14.0°F-10.0°C 3.7°F-15.7°C 63% Calm Calm 2.0 mph3.2 kmh 30.74 in1041.0 mb 0.00 in0.0 mm 0.00 in/hr0.0 mm/hr 0.00 in0.0 mm
08:30 PM 13.6°F-10.2°C 3.7°F-15.7°C 64% Calm Calm 2.0 mph3.2 kmh 30.74 in1041.0 mb 0.00 in0.0 mm 0.00 in/hr0.0 mm/hr 0.00 in0.0 mm
08:40 PM 13.3°F-10.4°C 3.8°F-15.7°C 65% Calm Calm -- 30.74 in1041.0 mb 0.00 in0.0 mm 0.00 in/hr0.0 mm/hr 0.00 in0.0 mm
08:50 PM 13.1°F-10.5°C 3.6°F-15.8°C 65% Calm Calm 1.0 mph1.6 kmh 30.75 in1041.3 mb 0.00 in0.0 mm 0.00 in/hr0.0 mm/hr 0.00 in0.0 mm
09:00 PM 12.9°F-10.6°C 3.7°F-15.7°C 66% Calm Calm 2.0 mph3.2 kmh 30.75 in1041.3 mb 0.00 in0.0 mm 0.00 in/hr0.0 mm/hr 0.00 in0.0 mm
09:10 PM 12.8°F-10.7°C 3.9°F-15.6°C 67% Calm Calm 2.0 mph3.2 kmh 30.75 in1041.3 mb 0.00 in0.0 mm 0.00 in/hr0.0 mm/hr 0.00 in0.0 mm
09:20 PM 12.8°F-10.7°C 4.3°F-15.4°C 68% Calm Calm -- 30.76 in1041.7 mb 0.00 in0.0 mm 0.00 in/hr0.0 mm/hr 0.00 in0.0 mm
09:30 PM 12.7°F-10.7°C 4.5°F-15.3°C 69% Calm Calm -- 30.76 in1041.7 mb 0.00 in0.0 mm 0.00 in/hr0.0 mm/hr 0.00 in0.0 mm
09:40 PM 12.8°F-10.7°C 4.9°F-15.1°C 70% 2.0 mph NNE3.2 kmh NNE 2.0 mph3.2 kmh 30.76 in1041.7 mb 0.00 in0.0 mm 0.00 in/hr0.0 mm/hr 0.00 in0.0 mm
09:50 PM 13.3°F-10.4°C 5.4°F-14.8°C 70% Calm Calm -- 30.76 in1041.7 mb 0.00 in0.0 mm 0.00 in/hr0.0 mm/hr 0.00 in0.0 mm
10:00 PM 13.7°F-10.2°C 5.1°F-14.9°C 68% 1.0 mph NNE1.6 kmh NNE 2.0 mph3.2 kmh 30.76 in1041.7 mb 0.00 in0.0 mm 0.00 in/hr0.0 mm/hr 0.00 in0.0 mm
10:10 PM 13.9°F-10.1°C 5.0°F-15.0°C 67% Calm Calm 3.0 mph4.8 kmh 30.76 in1041.7 mb 0.00 in0.0 mm 0.00 in/hr0.0 mm/hr 0.00 in0.0 mm
10:20 PM 14.0°F-10.0°C 4.8°F-15.1°C 66% Calm Calm 3.0 mph4.8 kmh 30.76 in1041.7 mb 0.00 in0.0 mm 0.00 in/hr0.0 mm/hr 0.00 in0.0 mm
10:30 PM 13.9°F-10.1°C 4.3°F-15.4°C 65% Calm Calm 1.0 mph1.6 kmh 30.76 in1041.7 mb 0.00 in0.0 mm 0.00 in/hr0.0 mm/hr 0.00 in0.0 mm
10:40 PM 13.6°F-10.2°C 4.0°F-15.6°C 65% 1.0 mph NNE1.6 kmh NNE 3.0 mph4.8 kmh 30.76 in1041.7 mb 0.00 in0.0 mm 0.00 in/hr0.0 mm/hr 0.00 in0.0 mm
10:50 PM 13.4°F-10.3°C 3.9°F-15.6°C 65% 2.0 mph NNE3.2 kmh NNE 3.0 mph4.8 kmh 30.76 in1041.7 mb 0.00 in0.0 mm 0.00 in/hr0.0 mm/hr 0.00 in0.0 mm
11:00 PM 13.3°F-10.4°C 3.8°F-15.7°C 65% Calm Calm 2.0 mph3.2 kmh 30.76 in1041.7 mb 0.00 in0.0 mm 0.00 in/hr0.0 mm/hr 0.00 in0.0 mm
11:10 PM 13.2°F-10.4°C 3.7°F-15.7°C 65% Calm Calm 2.0 mph3.2 kmh 30.76 in1041.7 mb 0.00 in0.0 mm 0.00 in/hr0.0 mm/hr 0.00 in0.0 mm
11:20 PM 13.1°F-10.5°C 3.6°F-15.8°C 65% Calm Calm 2.0 mph3.2 kmh 30.76 in1041.7 mb 0.00 in0.0 mm 0.00 in/hr0.0 mm/hr 0.00 in0.0 mm
11:30 PM 12.8°F-10.7°C 3.6°F-15.8°C 66% Calm Calm 2.0 mph3.2 kmh 30.76 in1041.7 mb 0.00 in0.0 mm 0.00 in/hr0.0 mm/hr 0.00 in0.0 mm
11:40 PM 12.5°F-10.8°C 3.3°F-15.9°C 66% Calm Calm -- 30.76 in1041.7 mb 0.00 in0.0 mm 0.00 in/hr0.0 mm/hr 0.00 in0.0 mm
11:50 PM 12.0°F-11.1°C 2.8°F-16.2°C 66% Calm Calm -- 30.76 in1041.7 mb 0.00 in0.0 mm 0.00 in/hr0.0 mm/hr 0.00 in0.0 mm